sensor_id;sensor_type;location;lat;lon;timestamp;P1;durP1;ratioP1;P2;durP2;ratioP2
21816;SDS011;13247;47.504;7.382;2024-02-23T00:01:11;0.28;;;0.28;;
21816;SDS011;13247;47.504;7.382;2024-02-23T00:03:56;0.22;;;0.22;;
21816;SDS011;13247;47.504;7.382;2024-02-23T00:06:40;0.20;;;0.20;;
21816;SDS011;13247;47.504;7.382;2024-02-23T00:09:25;0.20;;;0.20;;
21816;SDS011;13247;47.504;7.382;2024-02-23T00:12:10;0.17;;;0.17;;
21816;SDS011;13247;47.504;7.382;2024-02-23T00:14:57;0.70;;;0.30;;
21816;SDS011;13247;47.504;7.382;2024-02-23T00:17:42;0.20;;;0.20;;
21816;SDS011;13247;47.504;7.382;2024-02-23T00:20:26;0.22;;;0.22;;
21816;SDS011;13247;47.504;7.382;2024-02-23T00:23:10;2.00;;;0.25;;
21816;SDS011;13247;47.504;7.382;2024-02-23T00:25:55;0.20;;;0.20;;
21816;SDS011;13247;47.504;7.382;2024-02-23T00:28:39;0.20;;;0.20;;
21816;SDS011;13247;47.504;7.382;2024-02-23T00:31:24;0.20;;;0.20;;
21816;SDS011;13247;47.504;7.382;2024-02-23T00:34:09;0.50;;;0.50;;
21816;SDS011;13247;47.504;7.382;2024-02-23T00:36:54;6.50;;;0.38;;
21816;SDS011;13247;47.504;7.382;2024-02-23T00:39:41;0.40;;;0.30;;
21816;SDS011;13247;47.504;7.382;2024-02-23T00:42:26;0.20;;;0.20;;
21816;SDS011;13247;47.504;7.382;2024-02-23T00:45:10;0.50;;;0.50;;
21816;SDS011;13247;47.504;7.382;2024-02-23T00:47:55;0.47;;;0.30;;
21816;SDS011;13247;47.504;7.382;2024-02-23T00:50:40;0.20;;;0.20;;
21816;SDS011;13247;47.504;7.382;2024-02-23T00:53:25;3.50;;;0.30;;
21816;SDS011;13247;47.504;7.382;2024-02-23T00:56:09;3.88;;;0.40;;
21816;SDS011;13247;47.504;7.382;2024-02-23T00:58:54;3.53;;;0.52;;
21816;SDS011;13247;47.504;7.382;2024-02-23T01:01:39;0.52;;;0.45;;
21816;SDS011;13247;47.504;7.382;2024-02-23T01:04:24;0.30;;;0.30;;
21816;SDS011;13247;47.504;7.382;2024-02-23T01:07:09;0.22;;;0.22;;
21816;SDS011;13247;47.504;7.382;2024-02-23T01:09:54;0.25;;;0.25;;
21816;SDS011;13247;47.504;7.382;2024-02-23T01:12:38;0.65;;;0.38;;
21816;SDS011;13247;47.504;7.382;2024-02-23T01:15:23;0.20;;;0.20;;
21816;SDS011;13247;47.504;7.382;2024-02-23T01:18:08;0.55;;;0.40;;
21816;SDS011;13247;47.504;7.382;2024-02-23T01:20:53;0.32;;;0.32;;
21816;SDS011;13247;47.504;7.382;2024-02-23T01:23:39;1.30;;;0.43;;
21816;SDS011;13247;47.504;7.382;2024-02-23T01:26:24;0.55;;;0.55;;
21816;SDS011;13247;47.504;7.382;2024-02-23T01:29:08;0.30;;;0.30;;
21816;SDS011;13247;47.504;7.382;2024-02-23T01:31:53;2.92;;;0.77;;
21816;SDS011;13247;47.504;7.382;2024-02-23T01:34:38;0.20;;;0.20;;
21816;SDS011;13247;47.504;7.382;2024-02-23T01:37:23;0.70;;;0.45;;
21816;SDS011;13247;47.504;7.382;2024-02-23T01:40:07;1.23;;;0.30;;
21816;SDS011;13247;47.504;7.382;2024-02-23T01:43:04;1.27;;;0.40;;
21816;SDS011;13247;47.504;7.382;2024-02-23T01:45:49;1.92;;;0.35;;
21816;SDS011;13247;47.504;7.382;2024-02-23T01:48:34;0.47;;;0.35;;
21816;SDS011;13247;47.504;7.382;2024-02-23T01:51:20;0.57;;;0.50;;
21816;SDS011;13247;47.504;7.382;2024-02-23T01:54:05;3.50;;;0.40;;
21816;SDS011;13247;47.504;7.382;2024-02-23T01:56:50;0.40;;;0.30;;
21816;SDS011;13247;47.504;7.382;2024-02-23T01:59:36;0.28;;;0.28;;
21816;SDS011;13247;47.504;7.382;2024-02-23T02:02:23;0.50;;;0.50;;
21816;SDS011;13247;47.504;7.382;2024-02-23T02:05:08;0.13;;;0.13;;
21816;SDS011;13247;47.504;7.382;2024-02-23T02:07:53;0.52;;;0.52;;
21816;SDS011;13247;47.504;7.382;2024-02-23T02:10:42;0.25;;;0.25;;
21816;SDS011;13247;47.504;7.382;2024-02-23T02:13:29;0.32;;;0.32;;
21816;SDS011;13247;47.504;7.382;2024-02-23T02:16:13;0.77;;;0.43;;
21816;SDS011;13247;47.504;7.382;2024-02-23T02:18:58;2.03;;;0.50;;
21816;SDS011;13247;47.504;7.382;2024-02-23T02:21:43;1.35;;;0.35;;
21816;SDS011;13247;47.504;7.382;2024-02-23T02:24:27;0.30;;;0.30;;
21816;SDS011;13247;47.504;7.382;2024-02-23T02:27:12;3.85;;;0.82;;
21816;SDS011;13247;47.504;7.382;2024-02-23T02:29:57;0.30;;;0.30;;
21816;SDS011;13247;47.504;7.382;2024-02-23T02:32:42;0.55;;;0.40;;
21816;SDS011;13247;47.504;7.382;2024-02-23T02:35:26;1.25;;;0.60;;
21816;SDS011;13247;47.504;7.382;2024-02-23T02:38:11;0.40;;;0.30;;
21816;SDS011;13247;47.504;7.382;2024-02-23T02:40:56;2.38;;;0.40;;
21816;SDS011;13247;47.504;7.382;2024-02-23T02:43:43;0.32;;;0.32;;
21816;SDS011;13247;47.504;7.382;2024-02-23T02:46:27;0.50;;;0.50;;
21816;SDS011;13247;47.504;7.382;2024-02-23T02:49:12;0.30;;;0.30;;
21816;SDS011;13247;47.504;7.382;2024-02-23T02:51:56;1.77;;;0.52;;
21816;SDS011;13247;47.504;7.382;2024-02-23T02:54:41;4.97;;;0.80;;
21816;SDS011;13247;47.504;7.382;2024-02-23T02:57:25;0.80;;;0.40;;
21816;SDS011;13247;47.504;7.382;2024-02-23T03:00:10;0.55;;;0.40;;
21816;SDS011;13247;47.504;7.382;2024-02-23T03:02:55;0.57;;;0.40;;
21816;SDS011;13247;47.504;7.382;2024-02-23T03:05:40;0.20;;;0.20;;
21816;SDS011;13247;47.504;7.382;2024-02-23T03:08:24;0.77;;;0.55;;
21816;SDS011;13247;47.504;7.382;2024-02-23T03:11:09;0.40;;;0.40;;
21816;SDS011;13247;47.504;7.382;2024-02-23T03:13:55;4.07;;;1.30;;
21816;SDS011;13247;47.504;7.382;2024-02-23T03:16:40;0.50;;;0.50;;
21816;SDS011;13247;47.504;7.382;2024-02-23T03:19:25;0.55;;;0.55;;
21816;SDS011;13247;47.504;7.382;2024-02-23T03:22:10;0.60;;;0.45;;
21816;SDS011;13247;47.504;7.382;2024-02-23T03:24:55;1.17;;;0.35;;
21816;SDS011;13247;47.504;7.382;2024-02-23T03:27:40;0.57;;;0.40;;
21816;SDS011;13247;47.504;7.382;2024-02-23T03:30:24;1.55;;;0.75;;
21816;SDS011;13247;47.504;7.382;2024-02-23T03:33:09;0.30;;;0.30;;
21816;SDS011;13247;47.504;7.382;2024-02-23T03:35:53;0.57;;;0.40;;
21816;SDS011;13247;47.504;7.382;2024-02-23T03:38:39;2.65;;;1.02;;
21816;SDS011;13247;47.504;7.382;2024-02-23T03:41:24;3.40;;;0.50;;
21816;SDS011;13247;47.504;7.382;2024-02-23T03:44:08;1.65;;;0.40;;
21816;SDS011;13247;47.504;7.382;2024-02-23T03:46:53;1.60;;;0.70;;
21816;SDS011;13247;47.504;7.382;2024-02-23T03:49:38;1.75;;;0.57;;
21816;SDS011;13247;47.504;7.382;2024-02-23T03:52:23;1.75;;;0.45;;
21816;SDS011;13247;47.504;7.382;2024-02-23T03:55:07;0.40;;;0.40;;
21816;SDS011;13247;47.504;7.382;2024-02-23T03:57:52;3.85;;;0.50;;
21816;SDS011;13247;47.504;7.382;2024-02-23T04:00:37;0.35;;;0.30;;
21816;SDS011;13247;47.504;7.382;2024-02-23T04:03:24;1.00;;;0.40;;
21816;SDS011;13247;47.504;7.382;2024-02-23T04:06:09;2.20;;;0.30;;
21816;SDS011;13247;47.504;7.382;2024-02-23T04:08:54;1.85;;;0.40;;
21816;SDS011;13247;47.504;7.382;2024-02-23T04:11:38;3.28;;;0.55;;
21816;SDS011;13247;47.504;7.382;2024-02-23T04:14:23;0.70;;;0.30;;
21816;SDS011;13247;47.504;7.382;2024-02-23T04:17:08;0.40;;;0.40;;
21816;SDS011;13247;47.504;7.382;2024-02-23T04:19:55;1.92;;;1.38;;
21816;SDS011;13247;47.504;7.382;2024-02-23T04:22:40;1.10;;;0.40;;
21816;SDS011;13247;47.504;7.382;2024-02-23T04:25:24;2.83;;;0.30;;
21816;SDS011;13247;47.504;7.382;2024-02-23T04:28:09;2.63;;;0.65;;
21816;SDS011;13247;47.504;7.382;2024-02-23T04:30:54;0.30;;;0.30;;
21816;SDS011;13247;47.504;7.382;2024-02-23T04:33:38;0.20;;;0.20;;
21816;SDS011;13247;47.504;7.382;2024-02-23T04:36:23;2.25;;;0.50;;
21816;SDS011;13247;47.504;7.382;2024-02-23T04:39:08;0.30;;;0.30;;
21816;SDS011;13247;47.504;7.382;2024-02-23T04:41:52;1.00;;;0.50;;
21816;SDS011;13247;47.504;7.382;2024-02-23T04:44:38;0.80;;;0.43;;
21816;SDS011;13247;47.504;7.382;2024-02-23T04:47:26;0.82;;;0.38;;
21816;SDS011;13247;47.504;7.382;2024-02-23T04:50:10;2.15;;;0.85;;
21816;SDS011;13247;47.504;7.382;2024-02-23T04:52:55;0.45;;;0.45;;
21816;SDS011;13247;47.504;7.382;2024-02-23T04:55:39;0.52;;;0.52;;
21816;SDS011;13247;47.504;7.382;2024-02-23T04:58:25;1.80;;;0.60;;
21816;SDS011;13247;47.504;7.382;2024-02-23T05:01:09;4.80;;;0.98;;
21816;SDS011;13247;47.504;7.382;2024-02-23T05:03:54;0.25;;;0.25;;
21816;SDS011;13247;47.504;7.382;2024-02-23T05:06:38;2.15;;;0.40;;
21816;SDS011;13247;47.504;7.382;2024-02-23T05:09:23;0.43;;;0.43;;
21816;SDS011;13247;47.504;7.382;2024-02-23T05:12:08;1.30;;;0.50;;
21816;SDS011;13247;47.504;7.382;2024-02-23T05:14:53;0.30;;;0.30;;
21816;SDS011;13247;47.504;7.382;2024-02-23T05:17:37;5.18;;;0.47;;
21816;SDS011;13247;47.504;7.382;2024-02-23T05:20:22;0.45;;;0.20;;
21816;SDS011;13247;47.504;7.382;2024-02-23T05:23:07;3.58;;;0.82;;
21816;SDS011;13247;47.504;7.382;2024-02-23T05:25:51;0.10;;;0.10;;
21816;SDS011;13247;47.504;7.382;2024-02-23T05:28:36;0.30;;;0.30;;
21816;SDS011;13247;47.504;7.382;2024-02-23T05:31:23;3.30;;;0.90;;
21816;SDS011;13247;47.504;7.382;2024-02-23T05:34:30;0.20;;;0.20;;
21816;SDS011;13247;47.504;7.382;2024-02-23T05:37:14;3.53;;;1.30;;
21816;SDS011;13247;47.504;7.382;2024-02-23T05:39:59;1.30;;;0.57;;
21816;SDS011;13247;47.504;7.382;2024-02-23T05:42:47;0.68;;;0.40;;
21816;SDS011;13247;47.504;7.382;2024-02-23T05:45:31;3.47;;;0.80;;
21816;SDS011;13247;47.504;7.382;2024-02-23T05:48:16;0.20;;;0.20;;
21816;SDS011;13247;47.504;7.382;2024-02-23T05:51:02;0.47;;;0.47;;
21816;SDS011;13247;47.504;7.382;2024-02-23T05:53:47;1.48;;;0.52;;
21816;SDS011;13247;47.504;7.382;2024-02-23T05:56:32;0.38;;;0.38;;
21816;SDS011;13247;47.504;7.382;2024-02-23T05:59:16;12.77;;;0.98;;
21816;SDS011;13247;47.504;7.382;2024-02-23T06:02:01;2.60;;;0.50;;
21816;SDS011;13247;47.504;7.382;2024-02-23T06:04:46;0.55;;;0.22;;
21816;SDS011;13247;47.504;7.382;2024-02-23T06:07:31;2.55;;;0.88;;
21816;SDS011;13247;47.504;7.382;2024-02-23T06:10:16;0.40;;;0.40;;
21816;SDS011;13247;47.504;7.382;2024-02-23T06:13:01;0.45;;;0.30;;
21816;SDS011;13247;47.504;7.382;2024-02-23T06:15:46;4.72;;;0.40;;
21816;SDS011;13247;47.504;7.382;2024-02-23T06:18:30;1.00;;;0.57;;
21816;SDS011;13247;47.504;7.382;2024-02-23T06:21:15;0.30;;;0.30;;
21816;SDS011;13247;47.504;7.382;2024-02-23T06:24:01;2.85;;;0.43;;
21816;SDS011;13247;47.504;7.382;2024-02-23T06:26:46;5.93;;;0.43;;
21816;SDS011;13247;47.504;7.382;2024-02-23T06:29:32;1.55;;;0.65;;
21816;SDS011;13247;47.504;7.382;2024-02-23T06:32:17;5.97;;;0.80;;
21816;SDS011;13247;47.504;7.382;2024-02-23T06:35:02;0.50;;;0.50;;
21816;SDS011;13247;47.504;7.382;2024-02-23T06:37:46;4.90;;;0.70;;
21816;SDS011;13247;47.504;7.382;2024-02-23T06:40:31;5.15;;;1.30;;
21816;SDS011;13247;47.504;7.382;2024-02-23T06:43:15;7.88;;;1.60;;
21816;SDS011;13247;47.504;7.382;2024-02-23T06:46:03;3.17;;;0.52;;
21816;SDS011;13247;47.504;7.382;2024-02-23T06:48:52;2.97;;;1.60;;
21816;SDS011;13247;47.504;7.382;2024-02-23T06:51:37;0.47;;;0.40;;
21816;SDS011;13247;47.504;7.382;2024-02-23T06:54:24;4.47;;;0.60;;
21816;SDS011;13247;47.504;7.382;2024-02-23T06:57:09;3.92;;;0.75;;
21816;SDS011;13247;47.504;7.382;2024-02-23T06:59:53;7.65;;;0.95;;
21816;SDS011;13247;47.504;7.382;2024-02-23T07:02:41;0.40;;;0.30;;
21816;SDS011;13247;47.504;7.382;2024-02-23T07:05:25;2.53;;;0.70;;
21816;SDS011;13247;47.504;7.382;2024-02-23T07:08:10;0.75;;;0.45;;
21816;SDS011;13247;47.504;7.382;2024-02-23T07:10:55;3.65;;;0.35;;
21816;SDS011;13247;47.504;7.382;2024-02-23T07:13:42;8.13;;;0.80;;
21816;SDS011;13247;47.504;7.382;2024-02-23T07:16:27;0.40;;;0.40;;
21816;SDS011;13247;47.504;7.382;2024-02-23T07:19:12;2.72;;;0.65;;
21816;SDS011;13247;47.504;7.382;2024-02-23T07:21:56;3.78;;;1.05;;
21816;SDS011;13247;47.504;7.382;2024-02-23T07:24:41;0.28;;;0.28;;
21816;SDS011;13247;47.504;7.382;2024-02-23T07:27:26;6.15;;;0.80;;
21816;SDS011;13247;47.504;7.382;2024-02-23T07:30:11;0.98;;;0.60;;
21816;SDS011;13247;47.504;7.382;2024-02-23T07:32:56;0.88;;;0.40;;
21816;SDS011;13247;47.504;7.382;2024-02-23T07:35:41;4.93;;;0.95;;
21816;SDS011;13247;47.504;7.382;2024-02-23T07:38:26;0.70;;;0.70;;
21816;SDS011;13247;47.504;7.382;2024-02-23T07:41:11;3.00;;;1.63;;
21816;SDS011;13247;47.504;7.382;2024-02-23T07:43:59;12.18;;;0.70;;
21816;SDS011;13247;47.504;7.382;2024-02-23T07:46:43;1.02;;;0.82;;
21816;SDS011;13247;47.504;7.382;2024-02-23T07:49:28;2.65;;;0.57;;
21816;SDS011;13247;47.504;7.382;2024-02-23T07:52:13;1.35;;;0.57;;
21816;SDS011;13247;47.504;7.382;2024-02-23T07:54:58;2.55;;;0.77;;
21816;SDS011;13247;47.504;7.382;2024-02-23T07:57:46;3.25;;;1.80;;
21816;SDS011;13247;47.504;7.382;2024-02-23T08:00:30;6.03;;;1.63;;
21816;SDS011;13247;47.504;7.382;2024-02-23T08:03:16;3.63;;;1.70;;
21816;SDS011;13247;47.504;7.382;2024-02-23T08:06:00;1.38;;;0.47;;
21816;SDS011;13247;47.504;7.382;2024-02-23T08:08:46;5.57;;;0.60;;
21816;SDS011;13247;47.504;7.382;2024-02-23T08:11:30;3.88;;;1.90;;
21816;SDS011;13247;47.504;7.382;2024-02-23T08:14:15;28.92;;;8.43;;
21816;SDS011;13247;47.504;7.382;2024-02-23T08:16:59;191.68;;;89.90;;
21816;SDS011;13247;47.504;7.382;2024-02-23T08:19:44;184.95;;;88.13;;
21816;SDS011;13247;47.504;7.382;2024-02-23T08:22:28;60.13;;;30.73;;
21816;SDS011;13247;47.504;7.382;2024-02-23T08:25:13;28.70;;;16.85;;
21816;SDS011;13247;47.504;7.382;2024-02-23T08:27:57;28.27;;;14.32;;
21816;SDS011;13247;47.504;7.382;2024-02-23T08:30:42;69.43;;;37.63;;
21816;SDS011;13247;47.504;7.382;2024-02-23T08:33:27;32.95;;;22.15;;
21816;SDS011;13247;47.504;7.382;2024-02-23T08:36:11;31.88;;;15.75;;
21816;SDS011;13247;47.504;7.382;2024-02-23T08:38:56;64.50;;;36.03;;
21816;SDS011;13247;47.504;7.382;2024-02-23T08:41:41;71.53;;;37.50;;
21816;SDS011;13247;47.504;7.382;2024-02-23T08:44:25;52.97;;;26.45;;
21816;SDS011;13247;47.504;7.382;2024-02-23T08:47:10;36.67;;;19.10;;
21816;SDS011;13247;47.504;7.382;2024-02-23T08:49:55;17.48;;;9.20;;
21816;SDS011;13247;47.504;7.382;2024-02-23T08:52:39;12.27;;;7.28;;
21816;SDS011;13247;47.504;7.382;2024-02-23T08:55:24;2.97;;;1.80;;
21816;SDS011;13247;47.504;7.382;2024-02-23T08:58:08;2.42;;;1.23;;
21816;SDS011;13247;47.504;7.382;2024-02-23T09:00:53;5.85;;;4.82;;
21816;SDS011;13247;47.504;7.382;2024-02-23T09:03:37;3.25;;;1.63;;
21816;SDS011;13247;47.504;7.382;2024-02-23T09:06:22;6.25;;;2.33;;
21816;SDS011;13247;47.504;7.382;2024-02-23T09:09:07;3.17;;;1.35;;
21816;SDS011;13247;47.504;7.382;2024-02-23T09:11:52;7.15;;;3.90;;
21816;SDS011;13247;47.504;7.382;2024-02-23T09:14:37;2.95;;;1.02;;
21816;SDS011;13247;47.504;7.382;2024-02-23T09:17:25;3.78;;;2.80;;
21816;SDS011;13247;47.504;7.382;2024-02-23T09:20:09;3.90;;;3.17;;
21816;SDS011;13247;47.504;7.382;2024-02-23T09:22:54;4.10;;;1.73;;
21816;SDS011;13247;47.504;7.382;2024-02-23T09:25:40;1.08;;;0.43;;
21816;SDS011;13247;47.504;7.382;2024-02-23T09:28:25;7.20;;;2.08;;
21816;SDS011;13247;47.504;7.382;2024-02-23T09:31:10;13.02;;;1.83;;
21816;SDS011;13247;47.504;7.382;2024-02-23T09:33:55;0.77;;;0.38;;
21816;SDS011;13247;47.504;7.382;2024-02-23T09:36:40;6.10;;;3.80;;
21816;SDS011;13247;47.504;7.382;2024-02-23T09:39:25;3.78;;;1.17;;
21816;SDS011;13247;47.504;7.382;2024-02-23T09:42:13;3.55;;;0.77;;
21816;SDS011;13247;47.504;7.382;2024-02-23T09:44:59;0.32;;;0.25;;
21816;SDS011;13247;47.504;7.382;2024-02-23T09:47:44;1.10;;;1.00;;
21816;SDS011;13247;47.504;7.382;2024-02-23T09:50:30;1.55;;;0.77;;
21816;SDS011;13247;47.504;7.382;2024-02-23T09:53:15;2.17;;;1.40;;
21816;SDS011;13247;47.504;7.382;2024-02-23T09:56:03;2.22;;;1.48;;
21816;SDS011;13247;47.504;7.382;2024-02-23T09:58:49;0.60;;;0.60;;
21816;SDS011;13247;47.504;7.382;2024-02-23T10:01:36;0.82;;;0.82;;
21816;SDS011;13247;47.504;7.382;2024-02-23T10:04:21;0.60;;;0.50;;
21816;SDS011;13247;47.504;7.382;2024-02-23T10:07:07;0.77;;;0.38;;
21816;SDS011;13247;47.504;7.382;2024-02-23T10:09:53;2.88;;;1.27;;
21816;SDS011;13247;47.504;7.382;2024-02-23T10:12:39;3.47;;;1.52;;
21816;SDS011;13247;47.504;7.382;2024-02-23T10:15:24;1.58;;;0.68;;
21816;SDS011;13247;47.504;7.382;2024-02-23T10:18:09;5.72;;;1.40;;
21816;SDS011;13247;47.504;7.382;2024-02-23T10:20:54;1.08;;;0.98;;
21816;SDS011;13247;47.504;7.382;2024-02-23T10:23:39;3.08;;;1.42;;
21816;SDS011;13247;47.504;7.382;2024-02-23T10:26:26;1.02;;;0.68;;
21816;SDS011;13247;47.504;7.382;2024-02-23T10:29:10;4.10;;;0.80;;
21816;SDS011;13247;47.504;7.382;2024-02-23T10:31:56;4.28;;;0.40;;
21816;SDS011;13247;47.504;7.382;2024-02-23T10:34:42;2.15;;;1.90;;
21816;SDS011;13247;47.504;7.382;2024-02-23T10:37:28;1.40;;;0.77;;
21816;SDS011;13247;47.504;7.382;2024-02-23T10:40:13;7.20;;;1.35;;
21816;SDS011;13247;47.504;7.382;2024-02-23T10:43:01;2.55;;;0.90;;
21816;SDS011;13247;47.504;7.382;2024-02-23T10:45:49;4.22;;;2.63;;
21816;SDS011;13247;47.504;7.382;2024-02-23T10:48:35;3.78;;;1.52;;
21816;SDS011;13247;47.504;7.382;2024-02-23T10:51:21;2.55;;;1.70;;
21816;SDS011;13247;47.504;7.382;2024-02-23T10:54:06;5.00;;;2.55;;
21816;SDS011;13247;47.504;7.382;2024-02-23T10:56:52;2.25;;;0.77;;
21816;SDS011;13247;47.504;7.382;2024-02-23T10:59:39;4.07;;;1.60;;
21816;SDS011;13247;47.504;7.382;2024-02-23T11:02:24;1.10;;;0.98;;
21816;SDS011;13247;47.504;7.382;2024-02-23T11:05:13;0.77;;;0.40;;
21816;SDS011;13247;47.504;7.382;2024-02-23T11:08:00;0.70;;;0.22;;
21816;SDS011;13247;47.504;7.382;2024-02-23T11:10:51;1.90;;;1.17;;
21816;SDS011;13247;47.504;7.382;2024-02-23T11:13:36;4.45;;;2.42;;
21816;SDS011;13247;47.504;7.382;2024-02-23T11:16:22;4.80;;;1.95;;
21816;SDS011;13247;47.504;7.382;2024-02-23T11:19:09;2.22;;;1.80;;
21816;SDS011;13247;47.504;7.382;2024-02-23T11:21:54;4.65;;;1.77;;
21816;SDS011;13247;47.504;7.382;2024-02-23T11:24:42;1.70;;;1.60;;
21816;SDS011;13247;47.504;7.382;2024-02-23T11:27:33;1.73;;;0.93;;
21816;SDS011;13247;47.504;7.382;2024-02-23T11:30:18;1.17;;;0.70;;
21816;SDS011;13247;47.504;7.382;2024-02-23T11:33:02;2.70;;;1.48;;
21816;SDS011;13247;47.504;7.382;2024-02-23T11:35:51;1.85;;;1.50;;
21816;SDS011;13247;47.504;7.382;2024-02-23T11:38:36;3.75;;;0.93;;
21816;SDS011;13247;47.504;7.382;2024-02-23T11:41:24;1.20;;;0.85;;
21816;SDS011;13247;47.504;7.382;2024-02-23T11:44:10;6.00;;;2.70;;
21816;SDS011;13247;47.504;7.382;2024-02-23T11:46:57;1.48;;;0.77;;
21816;SDS011;13247;47.504;7.382;2024-02-23T11:49:43;1.05;;;0.98;;
21816;SDS011;13247;47.504;7.382;2024-02-23T11:52:28;1.90;;;0.80;;
21816;SDS011;13247;47.504;7.382;2024-02-23T11:55:17;1.52;;;1.42;;
21816;SDS011;13247;47.504;7.382;2024-02-23T11:58:06;1.58;;;1.30;;
21816;SDS011;13247;47.504;7.382;2024-02-23T12:00:52;2.50;;;1.30;;
21816;SDS011;13247;47.504;7.382;2024-02-23T12:03:37;2.70;;;0.90;;
21816;SDS011;13247;47.504;7.382;2024-02-23T12:06:23;2.15;;;1.25;;
21816;SDS011;13247;47.504;7.382;2024-02-23T12:09:11;3.63;;;1.25;;
21816;SDS011;13247;47.504;7.382;2024-02-23T12:11:58;3.88;;;2.10;;
21816;SDS011;13247;47.504;7.382;2024-02-23T12:14:43;0.68;;;0.68;;
21816;SDS011;13247;47.504;7.382;2024-02-23T12:17:28;1.92;;;0.57;;
21816;SDS011;13247;47.504;7.382;2024-02-23T12:20:13;2.58;;;0.77;;
21816;SDS011;13247;47.504;7.382;2024-02-23T12:22:57;3.33;;;1.25;;
21816;SDS011;13247;47.504;7.382;2024-02-23T12:25:54;1.38;;;0.80;;
21816;SDS011;13247;47.504;7.382;2024-02-23T12:28:42;3.33;;;0.70;;
21816;SDS011;13247;47.504;7.382;2024-02-23T12:31:28;0.93;;;0.40;;
21816;SDS011;13247;47.504;7.382;2024-02-23T12:34:14;1.00;;;0.35;;
21816;SDS011;13247;47.504;7.382;2024-02-23T12:37:01;2.95;;;1.10;;
21816;SDS011;13247;47.504;7.382;2024-02-23T12:39:47;5.70;;;0.90;;
21816;SDS011;13247;47.504;7.382;2024-02-23T12:42:32;5.25;;;0.90;;
21816;SDS011;13247;47.504;7.382;2024-02-23T12:45:17;1.33;;;0.50;;
21816;SDS011;13247;47.504;7.382;2024-02-23T12:48:02;3.33;;;1.50;;
21816;SDS011;13247;47.504;7.382;2024-02-23T12:50:47;1.80;;;1.30;;
21816;SDS011;13247;47.504;7.382;2024-02-23T12:53:36;0.93;;;0.60;;
21816;SDS011;13247;47.504;7.382;2024-02-23T12:56:25;0.65;;;0.38;;
21816;SDS011;13247;47.504;7.382;2024-02-23T12:59:10;2.35;;;1.38;;
21816;SDS011;13247;47.504;7.382;2024-02-23T13:01:54;1.25;;;0.70;;
21816;SDS011;13247;47.504;7.382;2024-02-23T13:04:39;1.05;;;0.65;;
21816;SDS011;13247;47.504;7.382;2024-02-23T13:07:25;0.82;;;0.70;;
21816;SDS011;13247;47.504;7.382;2024-02-23T13:10:10;6.47;;;3.00;;
21816;SDS011;13247;47.504;7.382;2024-02-23T13:12:54;4.10;;;0.80;;
21816;SDS011;13247;47.504;7.382;2024-02-23T13:15:40;3.13;;;0.90;;
21816;SDS011;13247;47.504;7.382;2024-02-23T13:18:25;0.13;;;0.13;;
21816;SDS011;13247;47.504;7.382;2024-02-23T13:21:09;1.38;;;0.75;;
21816;SDS011;13247;47.504;7.382;2024-02-23T13:23:54;3.42;;;1.70;;
21816;SDS011;13247;47.504;7.382;2024-02-23T13:26:38;1.13;;;0.52;;
21816;SDS011;13247;47.504;7.382;2024-02-23T13:29:23;1.20;;;0.93;;
21816;SDS011;13247;47.504;7.382;2024-02-23T13:32:07;2.53;;;0.70;;
21816;SDS011;13247;47.504;7.382;2024-02-23T13:34:52;1.58;;;0.43;;
21816;SDS011;13247;47.504;7.382;2024-02-23T13:37:38;1.90;;;0.75;;
21816;SDS011;13247;47.504;7.382;2024-02-23T13:40:23;5.15;;;0.93;;
21816;SDS011;13247;47.504;7.382;2024-02-23T13:43:08;0.50;;;0.50;;
21816;SDS011;13247;47.504;7.382;2024-02-23T13:45:53;1.05;;;0.95;;
21816;SDS011;13247;47.504;7.382;2024-02-23T13:48:38;2.25;;;1.95;;
21816;SDS011;13247;47.504;7.382;2024-02-23T13:51:22;2.85;;;1.65;;
21816;SDS011;13247;47.504;7.382;2024-02-23T13:54:07;0.50;;;0.43;;
21816;SDS011;13247;47.504;7.382;2024-02-23T13:56:52;0.55;;;0.50;;
21816;SDS011;13247;47.504;7.382;2024-02-23T13:59:37;1.10;;;1.00;;
21816;SDS011;13247;47.504;7.382;2024-02-23T14:02:25;1.50;;;1.38;;
21816;SDS011;13247;47.504;7.382;2024-02-23T14:05:12;0.75;;;0.52;;
21816;SDS011;13247;47.504;7.382;2024-02-23T14:07:58;3.13;;;0.70;;
21816;SDS011;13247;47.504;7.382;2024-02-23T14:10:43;1.13;;;0.80;;
21816;SDS011;13247;47.504;7.382;2024-02-23T14:13:28;0.73;;;0.73;;
21816;SDS011;13247;47.504;7.382;2024-02-23T14:16:13;2.20;;;1.67;;
21816;SDS011;13247;47.504;7.382;2024-02-23T14:18:57;3.53;;;1.67;;
21816;SDS011;13247;47.504;7.382;2024-02-23T14:21:43;3.35;;;0.80;;
21816;SDS011;13247;47.504;7.382;2024-02-23T14:24:28;0.50;;;0.32;;
21816;SDS011;13247;47.504;7.382;2024-02-23T14:27:12;2.42;;;1.10;;
21816;SDS011;13247;47.504;7.382;2024-02-23T14:29:57;0.98;;;0.85;;
21816;SDS011;13247;47.504;7.382;2024-02-23T14:32:42;2.78;;;0.82;;
21816;SDS011;13247;47.504;7.382;2024-02-23T14:35:26;1.70;;;0.82;;
21816;SDS011;13247;47.504;7.382;2024-02-23T14:38:11;3.95;;;0.40;;
21816;SDS011;13247;47.504;7.382;2024-02-23T14:40:55;3.35;;;1.38;;
21816;SDS011;13247;47.504;7.382;2024-02-23T14:43:40;1.67;;;1.40;;
21816;SDS011;13247;47.504;7.382;2024-02-23T14:46:25;2.15;;;1.20;;
21816;SDS011;13247;47.504;7.382;2024-02-23T14:49:09;3.13;;;1.50;;
21816;SDS011;13247;47.504;7.382;2024-02-23T14:51:54;1.02;;;0.80;;
21816;SDS011;13247;47.504;7.382;2024-02-23T14:54:38;0.82;;;0.82;;
21816;SDS011;13247;47.504;7.382;2024-02-23T14:57:23;0.85;;;0.60;;
21816;SDS011;13247;47.504;7.382;2024-02-23T15:00:08;1.75;;;0.40;;
21816;SDS011;13247;47.504;7.382;2024-02-23T15:02:53;0.77;;;0.40;;
21816;SDS011;13247;47.504;7.382;2024-02-23T15:05:38;0.85;;;0.40;;
21816;SDS011;13247;47.504;7.382;2024-02-23T15:08:23;4.10;;;0.80;;
21816;SDS011;13247;47.504;7.382;2024-02-23T15:11:08;1.65;;;0.40;;
21816;SDS011;13247;47.504;7.382;2024-02-23T15:13:52;0.80;;;0.68;;
21816;SDS011;13247;47.504;7.382;2024-02-23T15:16:41;0.32;;;0.32;;
21816;SDS011;13247;47.504;7.382;2024-02-23T15:19:26;0.98;;;0.40;;
21816;SDS011;13247;47.504;7.382;2024-02-23T15:22:11;0.30;;;0.30;;
21816;SDS011;13247;47.504;7.382;2024-02-23T15:24:58;1.05;;;1.05;;
21816;SDS011;13247;47.504;7.382;2024-02-23T15:27:43;1.23;;;0.50;;
21816;SDS011;13247;47.504;7.382;2024-02-23T15:30:27;1.17;;;0.95;;
21816;SDS011;13247;47.504;7.382;2024-02-23T15:33:12;1.45;;;0.43;;
21816;SDS011;13247;47.504;7.382;2024-02-23T15:35:58;0.98;;;0.70;;
21816;SDS011;13247;47.504;7.382;2024-02-23T15:38:42;2.45;;;0.57;;
21816;SDS011;13247;47.504;7.382;2024-02-23T15:41:27;1.65;;;0.30;;
21816;SDS011;13247;47.504;7.382;2024-02-23T15:44:13;2.45;;;0.38;;
21816;SDS011;13247;47.504;7.382;2024-02-23T15:46:57;2.40;;;1.10;;
21816;SDS011;13247;47.504;7.382;2024-02-23T15:49:43;2.50;;;0.57;;
21816;SDS011;13247;47.504;7.382;2024-02-23T15:52:28;1.90;;;0.35;;
21816;SDS011;13247;47.504;7.382;2024-02-23T15:55:13;0.10;;;0.10;;
21816;SDS011;13247;47.504;7.382;2024-02-23T15:57:58;16.75;;;4.20;;
21816;SDS011;13247;47.504;7.382;2024-02-23T16:00:43;3.80;;;1.40;;
21816;SDS011;13247;47.504;7.382;2024-02-23T16:03:28;2.05;;;0.60;;
21816;SDS011;13247;47.504;7.382;2024-02-23T16:06:13;0.20;;;0.20;;
21816;SDS011;13247;47.504;7.382;2024-02-23T16:08:58;2.00;;;1.25;;
21816;SDS011;13247;47.504;7.382;2024-02-23T16:11:44;2.42;;;1.55;;
21816;SDS011;13247;47.504;7.382;2024-02-23T16:14:30;5.43;;;2.20;;
21816;SDS011;13247;47.504;7.382;2024-02-23T16:17:15;4.20;;;1.65;;
21816;SDS011;13247;47.504;7.382;2024-02-23T16:19:59;2.03;;;1.00;;
21816;SDS011;13247;47.504;7.382;2024-02-23T16:22:44;6.13;;;1.90;;
21816;SDS011;13247;47.504;7.382;2024-02-23T16:25:28;1.85;;;1.10;;
21816;SDS011;13247;47.504;7.382;2024-02-23T16:28:13;0.88;;;0.77;;
21816;SDS011;13247;47.504;7.382;2024-02-23T16:30:58;10.80;;;1.08;;
21816;SDS011;13247;47.504;7.382;2024-02-23T16:33:43;1.35;;;0.93;;